Time;durP1;ratioP1;P1;durP2;ratioP2;P2;SDS_P1;SDS_P2;PMS_P1;PMS_P2;Temp;Humidity;BMP_temperature;BMP_pressure;BME280_temperature;BME280_humidity;BME280_pressure;Samples;Min_cycle;Max_cycle;Signal;HPM_P1;HPM_P2
2021/07/07 00:01:01;;;;;;;14.10;12.75;;;;;;;21.44;68.19;100531.38;1677299;81;25727;-78
2021/07/07 00:03:29;;;;;;;14.40;11.68;;;;;;;21.39;68.29;100535.41;1739716;81;26546;-77
2021/07/07 00:05:56;;;;;;;18.65;14.55;;;;;;;21.35;68.33;100535.11;1738461;81;26425;-78
2021/07/07 00:08:23;;;;;;;17.23;12.65;;;;;;;21.31;68.48;100539.44;1708791;81;27565;-77
2021/07/07 00:10:50;;;;;;;14.93;12.45;;;;;;;21.28;68.57;100534.49;1675205;81;25819;-78
2021/07/07 00:13:17;;;;;;;15.23;12.73;;;;;;;21.28;68.79;100535.02;1696501;81;25768;-78
2021/07/07 00:15:44;;;;;;;15.60;12.73;;;;;;;21.27;68.82;100534.23;1708034;81;25820;-78
2021/07/07 00:18:13;;;;;;;15.03;13.53;;;;;;;21.27;68.89;100538.84;1687756;81;25771;-78
2021/07/07 00:23:18;;;;;;;17.82;15.93;;;;;;;21.25;69.25;100540.48;1739696;81;26268;-78
2021/07/07 00:25:45;;;;;;;15.15;13.20;;;;;;;21.21;69.36;100542.05;1740126;81;25760;-78
2021/07/07 00:28:12;;;;;;;19.55;16.40;;;;;;;21.19;69.42;100547.49;1675249;81;25800;-77
2021/07/07 00:30:39;;;;;;;17.82;15.93;;;;;;;21.20;69.54;100542.31;1672454;81;25758;-78
2021/07/07 00:33:06;;;;;;;17.67;15.85;;;;;;;21.20;69.70;100543.67;1690039;81;27610;-77
2021/07/07 00:35:33;;;;;;;20.62;15.68;;;;;;;21.19;69.82;100540.12;1738418;81;25804;-77
2021/07/07 00:38:00;;;;;;;18.65;15.90;;;;;;;21.18;69.83;100532.21;1717015;81;25896;-78
2021/07/07 00:40:27;;;;;;;17.00;15.30;;;;;;;21.18;70.04;100536.30;1679109;81;26634;-77
2021/07/07 00:42:55;;;;;;;18.60;16.50;;;;;;;21.19;70.20;100540.12;1718147;81;25885;-78
2021/07/07 00:45:22;;;;;;;20.08;17.80;;;;;;;21.19;70.24;100536.59;1717569;81;27662;-78
2021/07/07 00:47:49;;;;;;;20.65;18.23;;;;;;;21.21;70.57;100541.25;1714627;81;25824;-78
2021/07/07 00:50:17;;;;;;;19.85;17.73;;;;;;;21.18;70.51;100538.48;1663968;81;25782;-78
2021/07/07 00:52:44;;;;;;;20.65;18.35;;;;;;;21.17;70.74;100543.64;1701776;81;26633;-77
2021/07/07 00:55:15;;;;;;;19.02;17.15;;;;;;;21.17;70.86;100545.56;1738668;81;25740;-78
2021/07/07 00:57:44;;;;;;;21.02;18.85;;;;;;;21.17;70.86;100538.19;1737454;81;27503;-77
2021/07/07 01:00:16;;;;;;;19.92;17.80;;;;;;;21.20;70.90;100539.05;1710147;81;25316;-77
2021/07/07 01:02:45;;;;;;;20.12;18.02;;;;;;;21.23;70.92;100537.72;1702197;81;25776;-78
2021/07/07 01:05:15;;;;;;;22.22;18.40;;;;;;;21.23;70.98;100540.45;1710885;81;26009;-78
2021/07/07 01:07:43;;;;;;;21.10;18.65;;;;;;;21.22;70.97;100543.70;1711659;81;26330;-77
2021/07/07 01:10:13;;;;;;;21.15;18.92;;;;;;;21.23;71.05;100541.80;1666036;81;28151;-77
2021/07/07 01:12:40;;;;;;;19.77;17.83;;;;;;;21.22;70.99;100540.98;1701432;81;25772;-78
2021/07/07 01:15:13;;;;;;;21.02;18.60;;;;;;;21.23;71.11;100543.17;1733935;81;26416;-77
2021/07/07 01:17:41;;;;;;;20.88;18.55;;;;;;;21.23;71.13;100528.19;1720100;81;26485;-77
2021/07/07 01:20:16;;;;;;;20.65;18.48;;;;;;;21.22;71.17;100527.36;1666330;81;26341;-77
2021/07/07 01:22:43;;;;;;;21.95;19.52;;;;;;;21.23;71.22;100527.66;1716230;81;28140;-78
2021/07/07 01:25:13;;;;;;;22.10;19.87;;;;;;;21.23;71.17;100522.73;1747739;81;25729;-77
2021/07/07 01:27:43;;;;;;;21.33;19.23;;;;;;;21.22;71.20;100526.53;1739342;81;26645;-77
2021/07/07 01:30:14;;;;;;;21.15;18.73;;;;;;;21.19;71.25;100526.50;1675667;81;26130;-77
2021/07/07 01:32:43;;;;;;;21.40;19.23;;;;;;;21.16;71.29;100532.48;1707632;81;26658;-77
2021/07/07 01:35:13;;;;;;;22.22;19.40;;;;;;;21.13;71.40;100525.34;1737119;81;27686;-77
2021/07/07 01:37:41;;;;;;;21.45;19.12;;;;;;;21.13;71.52;100533.52;1732417;81;25855;-77
2021/07/07 01:40:11;;;;;;;22.90;19.75;;;;;;;21.12;71.52;100528.63;1656441;81;25755;-77
2021/07/07 01:42:38;;;;;;;21.23;18.87;;;;;;;21.12;71.65;100534.08;1685131;81;26109;-77
2021/07/07 01:45:10;;;;;;;22.27;19.95;;;;;;;21.11;71.60;100535.14;1736134;81;25713;-77
2021/07/07 01:47:37;;;;;;;21.55;19.30;;;;;;;21.09;71.54;100537.30;1674865;84;27337;-77
2021/07/07 01:50:08;;;;;;;22.77;20.57;;;;;;;21.06;71.71;100535.11;1617426;84;25860;-77
2021/07/07 01:52:35;;;;;;;22.25;20.05;;;;;;;21.01;71.86;100536.91;1652277;84;25902;-78
2021/07/07 01:55:06;;;;;;;22.60;20.10;;;;;;;20.98;72.03;100531.99;1680133;84;26161;-77
2021/07/07 01:57:46;;;;;;;22.93;20.48;;;;;;;20.95;72.12;100539.30;1678349;84;25977;-77
2021/07/07 02:00:27;;;;;;;22.77;20.32;;;;;;;20.95;72.12;100539.30;1649891;84;28209;-77
2021/07/07 02:02:57;;;;;;;22.60;20.35;;;;;;;20.94;72.28;100538.47;1699031;83;25910;-77
2021/07/07 02:05:29;;;;;;;24.10;21.52;;;;;;;20.92;72.25;100541.98;1680245;84;25919;-78
2021/07/07 02:08:01;;;;;;;26.17;20.68;;;;;;;20.91;72.31;100543.09;1657323;84;25790;-77
2021/07/07 02:10:28;;;;;;;23.38;21.02;;;;;;;20.90;72.48;100537.34;1633053;84;25999;-78
2021/07/07 02:12:55;;;;;;;23.15;20.85;;;;;;;20.90;72.38;100537.34;1676782;84;28277;-77
2021/07/07 02:15:26;;;;;;;25.23;21.62;;;;;;;20.87;72.51;100541.13;1648703;84;25793;-78
2021/07/07 02:17:56;;;;;;;24.75;22.10;;;;;;;20.86;72.53;100547.63;1654096;84;25920;-78
2021/07/07 02:20:23;;;;;;;24.32;21.93;;;;;;;20.86;72.61;100549.82;1643361;84;25533;-78
2021/07/07 02:22:51;;;;;;;26.10;22.70;;;;;;;20.83;72.62;100543.52;1637421;84;25842;-77
2021/07/07 02:25:26;;;;;;;27.13;23.73;;;;;;;20.81;72.74;100546.23;1678144;84;45688;-77
2021/07/07 02:27:54;;;;;;;26.45;23.45;;;;;;;20.77;72.85;100548.63;1677907;84;25826;-77
2021/07/07 02:30:26;;;;;;;25.37;22.45;;;;;;;20.72;72.98;100550.74;1626670;85;25866;-78
2021/07/07 02:32:54;;;;;;;25.23;22.62;;;;;;;20.70;73.04;100549.34;1625378;85;26385;-77
2021/07/07 02:35:25;;;;;;;24.27;21.77;;;;;;;20.70;73.24;100556.16;1664710;84;26173;-77
2021/07/07 02:37:53;;;;;;;26.90;24.00;;;;;;;20.66;73.25;100555.84;1693836;83;27462;-77
2021/07/07 02:40:27;;;;;;;27.87;23.00;;;;;;;20.64;73.57;100556.64;1646380;84;26117;-77
2021/07/07 02:42:55;;;;;;;25.12;22.48;;;;;;;20.63;73.64;100558.27;1656983;83;26157;-77
2021/07/07 02:45:22;;;;;;;25.82;23.27;;;;;;;20.63;73.66;100563.17;1664635;83;25831;-77
2021/07/07 02:47:50;;;;;;;27.02;23.75;;;;;;;20.65;73.79;100562.91;1687291;83;25862;-77
2021/07/07 02:50:20;;;;;;;26.42;23.62;;;;;;;20.65;73.79;100558.83;1628947;86;27502;-78
2021/07/07 02:52:50;;;;;;;25.77;23.18;;;;;;;20.64;73.88;100563.97;1634331;86;25832;-77
2021/07/07 02:55:20;;;;;;;26.45;23.62;;;;;;;20.61;73.81;100569.41;1648319;85;25863;-77
2021/07/07 02:58:03;;;;;;;25.00;22.25;;;;;;;20.62;74.05;100571.04;1678781;85;25739;-77
2021/07/07 03:00:43;;;;;;;26.82;24.02;;;;;;;20.63;74.01;100573.23;1609306;85;25815;-77
2021/07/07 03:03:16;;;;;;;27.55;24.72;;;;;;;20.62;74.08;100572.41;1633576;85;27529;-77
2021/07/07 03:05:59;;;;;;;27.00;24.20;;;;;;;20.64;74.19;100576.22;1645254;85;25850;-77
2021/07/07 03:08:30;;;;;;;29.40;26.00;;;;;;;20.63;74.12;100574.06;1682074;85;25812;-78
2021/07/07 03:10:58;;;;;;;27.93;24.77;;;;;;;20.63;74.16;100575.95;1653340;83;25910;-78
2021/07/07 03:13:26;;;;;;;28.00;24.95;;;;;;;20.63;74.30;100577.31;1623284;85;25862;-78
2021/07/07 03:15:55;;;;;;;28.35;25.45;;;;;;;20.64;74.34;100583.03;1674911;83;27552;-78
2021/07/07 03:18:22;;;;;;;27.07;23.57;;;;;;;20.66;74.39;100581.70;1659955;85;25878;-77
2021/07/07 03:20:52;;;;;;;27.58;24.67;;;;;;;20.67;74.47;100583.89;1666090;84;26209;-77
2021/07/07 03:23:21;;;;;;;28.25;25.10;;;;;;;20.67;74.61;100582.53;1637443;84;26106;-77
2021/07/07 03:25:51;;;;;;;28.77;25.57;;;;;;;20.64;74.65;100585.75;1666009;85;25840;-77
2021/07/07 03:28:20;;;;;;;29.35;25.95;;;;;;;20.63;74.90;100590.92;1644566;85;28271;-77
2021/07/07 03:30:48;;;;;;;28.92;26.07;;;;;;;20.63;75.09;100589.03;1659735;84;25854;-76
2021/07/07 03:33:16;;;;;;;29.90;26.85;;;;;;;20.68;75.29;100590.97;1640632;84;25806;-77
2021/07/07 03:35:43;;;;;;;27.87;24.90;;;;;;;20.74;75.41;100588.63;1676234;84;26380;-77
2021/07/07 03:38:10;;;;;;;30.90;27.20;;;;;;;20.78;75.30;100582.95;1630037;84;25799;-77
2021/07/07 03:40:38;;;;;;;30.27;27.27;;;;;;;20.83;75.31;100591.72;1649141;84;28253;-77
2021/07/07 03:43:06;;;;;;;25.92;23.38;;;;;;;20.87;75.20;100584.12;1626982;84;25816;-77
2021/07/07 03:45:34;;;;;;;27.95;25.05;;;;;;;20.92;75.23;100586.92;1680564;84;25916;-77
2021/07/07 03:48:01;;;;;;;27.65;24.82;;;;;;;20.99;75.18;100596.26;1653632;84;25708;-77
2021/07/07 03:50:28;;;;;;;28.85;25.35;;;;;;;21.05;75.13;100599.34;1653156;83;25904;-77
2021/07/07 03:52:55;;;;;;;28.77;25.82;;;;;;;21.09;75.05;100599.95;1640922;84;27374;-77
2021/07/07 03:55:24;;;;;;;27.02;24.43;;;;;;;21.13;74.95;100601.08;1661821;84;25812;-77
2021/07/07 03:57:51;;;;;;;26.60;23.80;;;;;;;21.14;74.96;100600.02;1643142;84;25834;-79
2021/07/07 04:00:23;;;;;;;27.77;24.75;;;;;;;21.22;74.97;100606.89;1638754;84;26931;-79
2021/07/07 04:02:52;;;;;;;27.50;24.40;;;;;;;21.28;74.95;100597.69;1630667;84;26677;-79
2021/07/07 04:05:19;;;;;;;26.77;24.18;;;;;;;21.33;74.95;100603.20;1674020;84;28732;-76
2021/07/07 04:07:47;;;;;;;26.75;23.95;;;;;;;21.37;74.73;100599.71;1658458;84;26305;-77
2021/07/07 04:10:17;;;;;;;27.20;24.52;;;;;;;21.42;74.76;100604.39;1661246;84;26023;-77
2021/07/07 04:12:44;;;;;;;27.50;24.50;;;;;;;;;;1625569;84;26595;-77
2021/07/07 04:15:14;;;;;;;26.20;23.52;;;;;;;21.56;74.67;100611.59;1679826;84;25938;-76
2021/07/07 04:17:41;;;;;;;28.65;25.75;;;;;;;21.62;74.57;100612.75;1659540;84;27529;-76
2021/07/07 04:20:15;;;;;;;26.57;23.80;;;;;;;21.68;74.52;100616.36;1621893;84;25879;-77
2021/07/07 04:22:42;;;;;;;25.70;22.87;;;;;;;21.75;74.43;100613.69;1669371;84;26059;-77
2021/07/07 04:25:13;;;;;;;26.57;23.87;;;;;;;21.80;74.33;100622.45;1676409;84;26607;-77
2021/07/07 04:27:41;;;;;;;26.40;23.90;;;;;;;21.85;74.17;100619.28;1624568;84;25814;-77
2021/07/07 04:30:14;;;;;;;26.50;23.75;;;;;;;21.89;74.30;100620.41;1607529;84;28282;-78
2021/07/07 04:32:41;;;;;;;26.40;23.77;;;;;;;21.99;74.40;100622.38;1674238;84;25791;-77
2021/07/07 04:35:10;;;;;;;25.23;22.50;;;;;;;22.07;74.27;100617.79;1689442;83;26367;-78
2021/07/07 04:37:38;;;;;;;28.30;25.35;;;;;;;22.11;74.06;100623.03;1633601;84;25804;-77
2021/07/07 04:40:07;;;;;;;28.02;25.10;;;;;;;22.17;73.77;100615.98;1695619;81;25810;-78
2021/07/07 04:42:34;;;;;;;26.40;23.70;;;;;;;22.19;73.70;100617.91;1737601;81;28260;-78
2021/07/07 04:45:01;;;;;;;26.95;23.80;;;;;;;22.26;73.79;100613.59;1744365;81;25780;-78
2021/07/07 04:47:28;;;;;;;27.17;24.23;;;;;;;22.32;73.76;100615.80;1671553;81;25881;-78
2021/07/07 04:49:55;;;;;;;29.18;24.43;;;;;;;22.37;73.79;100617.20;1694069;81;26245;-77
2021/07/07 04:52:22;;;;;;;26.33;23.65;;;;;;;22.47;73.95;100613.16;1741725;81;25851;-77
2021/07/07 04:54:49;;;;;;;26.12;23.35;;;;;;;22.55;73.66;100614.84;1740044;81;27094;-78
2021/07/07 04:57:16;;;;;;;26.23;23.52;;;;;;;22.62;73.51;100614.64;1679234;81;25976;-78
2021/07/07 04:59:43;;;;;;;24.23;21.42;;;;;;;22.68;73.32;100615.77;1679836;81;25979;-78
2021/07/07 05:02:10;;;;;;;25.15;22.45;;;;;;;22.75;73.33;100614.96;1741394;81;26093;-78
2021/07/07 05:04:37;;;;;;;26.15;23.18;;;;;;;22.83;73.28;100614.48;1740135;81;25760;-77
2021/07/07 05:07:04;;;;;;;25.75;22.98;;;;;;;22.92;73.30;100612.85;1680739;81;27665;-77
2021/07/07 05:09:31;;;;;;;25.40;22.70;;;;;;;23.03;73.12;100614.28;1727591;81;25866;-77
2021/07/07 05:11:59;;;;;;;23.92;21.55;;;;;;;23.11;73.09;100614.58;1738827;81;25858;-78
2021/07/07 05:14:26;;;;;;;24.52;21.97;;;;;;;23.23;73.13;100610.22;1740530;81;25707;-77
2021/07/07 05:16:53;;;;;;;23.57;21.17;;;;;;;23.33;72.85;100611.66;1696180;81;26617;-78
2021/07/07 05:19:20;;;;;;;26.48;21.70;;;;;;;23.44;72.84;100611.94;1718666;81;27536;-78
2021/07/07 05:21:47;;;;;;;22.90;20.52;;;;;;;23.54;72.70;100618.27;1723800;81;25884;-77
2021/07/07 05:24:14;;;;;;;34.03;21.48;;;;;;;23.62;72.41;100619.63;1723379;81;25740;-78
2021/07/07 05:26:41;;;;;;;20.90;18.95;;;;;;;23.73;72.64;100618.55;1664141;81;25839;-78
2021/07/07 05:29:08;;;;;;;20.75;18.75;;;;;;;23.86;72.12;100618.02;1670335;81;25842;-78
2021/07/07 05:31:35;;;;;;;21.30;19.23;;;;;;;23.95;72.04;100621.03;1740384;81;27540;-78
2021/07/07 05:34:02;;;;;;;20.92;18.82;;;;;;;24.03;71.88;100621.30;1741600;81;25824;-77
2021/07/07 05:36:29;;;;;;;21.10;18.92;;;;;;;24.14;71.46;100622.14;1687010;81;26467;-78
2021/07/07 05:38:56;;;;;;;20.37;18.48;;;;;;;24.23;70.95;100629.50;1690172;81;25860;-78
2021/07/07 05:41:23;;;;;;;23.77;18.98;;;;;;;24.33;71.51;100625.41;1739683;81;26058;-78
2021/07/07 05:43:54;;;;;;;20.52;18.45;;;;;;;24.46;70.62;100625.38;1712719;81;27990;-78
2021/07/07 05:46:19;;;;;;;20.27;18.20;;;;;;;24.54;70.42;100627.53;1673903;81;25879;-76
2021/07/07 05:48:46;;;;;;;19.25;17.48;;;;;;;24.63;70.63;100631.36;1675572;81;25365;-78
2021/07/07 05:51:14;;;;;;;19.98;17.92;;;;;;;24.69;69.91;100632.14;1743810;81;26467;-78
2021/07/07 05:53:41;;;;;;;18.77;16.67;;;;;;;24.70;69.51;100635.17;1739452;81;25828;-77
2021/07/07 05:56:08;;;;;;;18.30;16.57;;;;;;;24.68;69.44;100633.27;1708764;81;27459;-78
2021/07/07 05:58:35;;;;;;;19.98;17.87;;;;;;;24.69;69.31;100634.89;1679666;81;25848;-78
2021/07/07 06:01:03;;;;;;;19.48;17.17;;;;;;;24.78;69.51;100635.99;1724069;81;25828;-78
2021/07/07 06:03:30;;;;;;;20.23;17.12;;;;;;;24.87;69.21;100634.32;1718743;81;25940;-78
2021/07/07 06:05:57;;;;;;;18.90;16.93;;;;;;;24.94;69.40;100633.45;1692179;81;26461;-78
2021/07/07 06:08:24;;;;;;;18.70;16.95;;;;;;;25.05;69.89;100638.62;1724432;81;28173;-77
2021/07/07 06:10:51;;;;;;;18.35;16.42;;;;;;;25.17;69.80;100643.21;1743581;81;25758;-78
2021/07/07 06:15:44;;;;;;;18.73;16.70;;;;;;;25.44;69.66;100634.61;1792466;78;25849;-78
2021/07/07 06:18:11;;;;;;;18.20;16.40;;;;;;;25.51;69.69;100639.78;1714208;83;25319;-78
2021/07/07 06:20:39;;;;;;;17.35;15.55;;;;;;;25.57;68.54;100633.16;1659338;84;27496;-78
2021/07/07 06:23:06;;;;;;;18.27;16.48;;;;;;;25.65;68.19;100635.28;1683871;83;25795;-78
2021/07/07 06:25:33;;;;;;;18.77;16.35;;;;;;;25.74;68.10;100633.58;1669692;84;26641;-78
2021/07/07 06:28:00;;;;;;;19.37;16.73;;;;;;;25.83;68.67;100636.78;1648653;84;25801;-78
2021/07/07 06:30:28;;;;;;;20.15;17.55;;;;;;;25.90;67.66;100637.28;1635182;84;25827;-79
2021/07/07 06:32:59;;;;;;;19.12;16.55;;;;;;;25.95;67.81;100635.88;1633585;84;27497;-78
2021/07/07 06:35:30;;;;;;;18.92;16.85;;;;;;;26.03;68.19;100639.38;1655804;84;25889;-78
2021/07/07 06:37:57;;;;;;;19.92;17.95;;;;;;;26.13;68.44;100638.52;1633329;85;26535;-78
2021/07/07 06:40:25;;;;;;;23.55;17.10;;;;;;;26.19;68.29;100625.55;1642107;84;25819;-78
2021/07/07 06:42:52;;;;;;;19.40;17.62;;;;;;;26.26;67.56;100629.58;1632817;84;25842;-78
2021/07/07 06:45:21;;;;;;;19.02;17.05;;;;;;;26.33;66.76;100634.19;1697352;83;28150;-78
2021/07/07 06:47:48;;;;;;;17.65;15.85;;;;;;;26.39;66.27;100634.97;1664550;83;26550;-78
2021/07/07 06:50:16;;;;;;;21.00;16.85;;;;;;;26.44;66.56;100639.02;1642954;85;25999;-78
2021/07/07 06:52:44;;;;;;;16.87;14.95;;;;;;;26.52;66.56;100641.13;1645287;84;25945;-78
2021/07/07 06:55:12;;;;;;;18.82;15.95;;;;;;;26.60;66.75;100639.14;1688919;84;25833;-78
2021/07/07 06:57:40;;;;;;;19.32;16.10;;;;;;;26.69;65.69;100642.31;1659555;84;27474;-78
2021/07/07 07:00:11;;;;;;;16.90;15.13;;;;;;;26.79;65.73;100639.22;1641850;84;25861;-78
2021/07/07 07:02:39;;;;;;;17.82;15.80;;;;;;;26.84;65.41;100644.67;1667204;83;25882;-78
2021/07/07 07:05:09;;;;;;;16.30;14.50;;;;;;;26.88;64.97;100638.27;1649592;84;25774;-78
2021/07/07 07:07:37;;;;;;;18.27;15.98;;;;;;;26.94;64.69;100636.30;1658306;84;25846;-78
2021/07/07 07:10:06;;;;;;;16.20;14.35;;;;;;;26.99;65.05;100632.91;1665755;83;27662;-78
2021/07/07 07:12:40;;;;;;;16.85;15.23;;;;;;;27.06;64.29;100649.05;1639219;85;25845;-78
2021/07/07 07:15:08;;;;;;;17.17;15.43;;;;;;;27.11;64.06;100635.25;1686219;84;25783;-78
2021/07/07 07:17:35;;;;;;;17.45;15.85;;;;;;;27.19;64.87;100639.54;1665163;84;26016;-79
2021/07/07 07:20:05;;;;;;;16.50;15.00;;;;;;;27.25;64.56;100639.72;1665947;84;25852;-78
2021/07/07 07:22:33;;;;;;;16.97;15.28;;;;;;;27.35;63.75;100644.31;1688835;84;27745;-78
2021/07/07 07:25:00;;;;;;;16.70;15.05;;;;;;;27.40;63.63;100640.92;1658683;84;25917;-78
2021/07/07 07:27:27;;;;;;;17.05;15.43;;;;;;;27.51;64.03;100642.97;1665274;84;25801;-78
2021/07/07 07:29:54;;;;;;;15.23;13.78;;;;;;;27.59;63.35;100640.13;1654725;84;25812;-78
2021/07/07 07:32:21;;;;;;;16.52;14.93;;;;;;;27.65;62.96;100644.42;1624396;85;26027;-78
2021/07/07 07:34:49;;;;;;;16.52;14.83;;;;;;;27.73;63.33;100641.81;1686405;84;27598;-78
2021/07/07 07:37:23;;;;;;;15.32;13.83;;;;;;;27.84;62.83;100642.47;1667090;84;26142;-78
2021/07/07 07:39:47;;;;;;;15.75;13.85;;;;;;;27.90;62.00;100648.15;1633022;84;25869;-78
2021/07/07 07:42:16;;;;;;;15.13;13.72;;;;;;;27.95;62.50;100650.25;1658372;84;25914;-78
2021/07/07 07:44:44;;;;;;;15.50;13.90;;;;;;;28.03;61.30;100659.26;1682612;84;26710;-78
2021/07/07 07:47:12;;;;;;;14.20;12.68;;;;;;;28.12;61.26;100660.19;1660811;85;27449;-78
2021/07/07 07:49:39;;;;;;;20.88;12.95;;;;;;;28.16;60.68;100657.66;1654358;84;26506;-78
2021/07/07 07:52:07;;;;;;;14.55;13.05;;;;;;;28.22;60.98;100650.95;1637080;85;25895;-78
2021/07/07 07:54:35;;;;;;;14.30;12.82;;;;;;;28.32;60.91;100652.13;1681664;84;26406;-78
2021/07/07 07:57:03;;;;;;;13.18;11.88;;;;;;;28.40;60.60;100651.43;1660407;84;25828;-78
2021/07/07 07:59:30;;;;;;;13.80;12.40;;;;;;;28.46;59.77;100647.48;1640131;84;27467;-78
2021/07/07 08:01:57;;;;;;;13.50;12.28;;;;;;;28.53;59.23;100645.70;1654959;84;25845;-78
2021/07/07 08:04:24;;;;;;;14.43;11.85;;;;;;;28.58;59.14;100651.96;1677760;84;25736;-78
2021/07/07 08:06:51;;;;;;;23.95;11.68;;;;;;;28.67;58.22;100649.31;1659212;84;25864;-78
2021/07/07 08:09:18;;;;;;;11.38;10.48;;;;;;;28.75;58.73;100651.36;1641176;85;26045;-78
2021/07/07 08:11:46;;;;;;;14.75;11.63;;;;;;;28.76;57.21;100645.53;1638733;84;27491;-78
2021/07/07 08:14:13;;;;;;;11.85;10.85;;;;;;;28.82;56.19;100647.64;1672141;84;25827;-78
2021/07/07 08:16:40;;;;;;;12.73;10.72;;;;;;;28.86;55.15;100652.79;1630153;86;25833;-78
2021/07/07 08:19:07;;;;;;;10.18;9.38;;;;;;;28.87;54.27;100652.48;1622563;85;25998;-78
2021/07/07 08:21:34;;;;;;;11.45;10.23;;;;;;;28.93;55.70;100652.62;1649804;85;25894;-78
2021/07/07 08:24:03;;;;;;;11.08;9.98;;;;;;;28.99;55.28;100656.11;1673511;85;27559;-78
2021/07/07 08:26:30;;;;;;;12.40;11.20;;;;;;;29.06;54.33;100655.14;1671877;85;26482;-78
2021/07/07 08:28:58;;;;;;;11.35;10.28;;;;;;;29.11;53.48;100659.16;1627612;85;26309;-78
2021/07/07 08:31:26;;;;;;;13.72;10.43;;;;;;;29.15;53.04;100645.00;1639007;86;26185;-78
2021/07/07 08:33:55;;;;;;;10.13;9.05;;;;;;;29.22;52.97;100660.61;1660274;85;25913;-78
2021/07/07 08:36:25;;;;;;;9.90;8.93;;;;;;;29.26;52.49;100661.63;1635887;86;27186;-78
2021/07/07 08:38:54;;;;;;;9.63;8.68;;;;;;;29.33;52.61;100658.45;1628816;86;26624;-78
2021/07/07 08:41:22;;;;;;;9.85;8.85;;;;;;;29.40;52.56;100653.33;1618459;85;25838;-79
2021/07/07 08:43:50;;;;;;;11.12;10.00;;;;;;;29.44;52.67;100660.69;1669950;84;25852;-78
2021/07/07 08:46:17;;;;;;;10.85;9.83;;;;;;;29.54;53.20;100664.59;1643636;85;25882;-78
2021/07/07 08:48:44;;;;;;;10.15;9.10;;;;;;;29.62;52.06;100663.84;1628123;85;28113;-78
2021/07/07 08:51:11;;;;;;;12.45;9.10;;;;;;;29.65;51.95;100664.61;1630287;85;26003;-79
2021/07/07 08:53:40;;;;;;;9.78;8.88;;;;;;;29.70;51.68;100666.44;1668453;84;25840;-78
2021/07/07 08:56:07;;;;;;;12.85;9.45;;;;;;;29.75;51.53;100664.16;1662637;85;26494;-78
2021/07/07 08:58:34;;;;;;;9.40;8.60;;;;;;;29.80;50.83;100657.94;1647080;85;25828;-78
2021/07/07 09:01:02;;;;;;;12.75;9.13;;;;;;;29.86;50.30;100664.97;1640325;86;27549;-78
2021/07/07 09:03:30;;;;;;;10.10;8.73;;;;;;;29.89;50.09;100667.11;1675656;84;25847;-78
2021/07/07 09:06:03;;;;;;;9.35;8.38;;;;;;;29.95;49.85;100663.66;1646122;85;25879;-78
2021/07/07 09:08:42;;;;;;;9.73;8.85;;;;;;;30.02;49.47;100663.48;1641728;85;25923;-78
2021/07/07 09:11:28;;;;;;;9.63;8.85;;;;;;;30.05;49.79;100667.54;1640062;85;25889;-78
2021/07/07 09:14:12;;;;;;;10.88;9.73;;;;;;;30.06;50.03;100663.66;1666157;85;27535;-78
2021/07/07 09:16:59;;;;;;;10.93;9.00;;;;;;;30.12;49.75;100663.22;1678502;84;25769;-78
2021/07/07 09:19:27;;;;;;;13.58;9.03;;;;;;;30.17;50.02;100670.56;1662143;84;26615;-78
2021/07/07 09:22:00;;;;;;;9.30;8.35;;;;;;;30.23;49.42;100670.13;1644664;84;25846;-78
2021/07/07 09:24:25;;;;;;;9.75;8.80;;;;;;;30.28;49.95;100674.71;1679601;84;25856;-78
2021/07/07 09:27:12;;;;;;;10.38;8.95;;;;;;;30.33;49.62;100671.27;1652386;85;27517;-78
2021/07/07 09:29:52;;;;;;;9.55;8.75;;;;;;;30.33;48.38;100678.17;1664955;84;25816;-78
2021/07/07 09:32:26;;;;;;;15.93;8.35;;;;;;;30.34;49.24;100679.82;1678581;84;25964;-77
2021/07/07 09:34:54;;;;;;;10.00;9.13;;;;;;;30.38;49.77;100682.20;1676830;84;25835;-78
2021/07/07 09:37:37;;;;;;;9.57;8.60;;;;;;;30.43;49.05;100685.41;1659813;84;25988;-78
2021/07/07 09:40:09;;;;;;;9.80;8.85;;;;;;;30.46;49.37;100686.95;1680411;84;27546;-78
2021/07/07 09:42:38;;;;;;;10.28;8.73;;;;;;;30.52;48.24;100684.07;1664552;84;25943;-78
2021/07/07 09:45:12;;;;;;;8.80;8.00;;;;;;;30.53;47.05;100680.98;1660636;85;25954;-78
2021/07/07 09:47:40;;;;;;;9.90;8.98;;;;;;;30.54;47.56;100683.97;1655250;84;26173;-78
2021/07/07 09:50:09;;;;;;;8.98;8.10;;;;;;;30.59;47.86;100685.80;1626025;84;26307;-78
2021/07/07 09:52:37;;;;;;;11.03;8.10;;;;;;;30.65;45.99;100685.34;1678634;84;28649;-78
2021/07/07 09:55:10;;;;;;;10.82;9.05;;;;;;;30.67;46.94;100688.60;1673555;84;26493;-78
2021/07/07 09:57:44;;;;;;;9.50;8.65;;;;;;;30.72;46.95;100689.86;1638691;84;25948;-78
2021/07/07 10:00:09;;;;;;;10.08;8.80;;;;;;;30.75;46.96;100682.32;1645457;84;25813;-78
2021/07/07 10:02:36;;;;;;;9.13;8.33;;;;;;;30.80;46.71;100688.25;1672903;84;26235;-78
2021/07/07 10:05:04;;;;;;;9.28;8.38;;;;;;;30.84;46.59;100683.74;1683923;84;27586;-78
2021/07/07 10:07:32;;;;;;;9.70;8.78;;;;;;;30.91;46.34;100689.63;1635124;84;26557;-78
2021/07/07 10:09:59;;;;;;;9.53;8.68;;;;;;;30.96;46.51;100689.50;1661567;84;26066;-78
2021/07/07 10:12:29;;;;;;;9.68;8.40;;;;;;;30.99;46.13;100692.44;1674419;84;25776;-78
2021/07/07 10:14:56;;;;;;;;;;;;;;;31.02;46.22;100692.37;1684062;84;25758;-78
2021/07/07 10:17:24;;;;;;;9.53;8.73;;;;;;;31.02;44.90;100689.05;1647118;84;28334;-78
2021/07/07 10:19:51;;;;;;;10.10;9.20;;;;;;;31.01;45.15;100689.34;1646486;85;25990;-78
2021/07/07 10:22:18;;;;;;;9.33;8.53;;;;;;;31.03;45.71;100687.09;1671650;84;25899;-78
2021/07/07 10:24:46;;;;;;;9.10;8.20;;;;;;;31.01;45.24;100688.78;1633194;84;25524;-78
2021/07/07 10:27:13;;;;;;;10.18;7.72;;;;;;;31.05;46.08;100684.23;1671325;84;26512;-78
2021/07/07 10:29:43;;;;;;;10.70;8.58;;;;;;;31.07;45.37;100690.84;1653918;84;27500;-78
2021/07/07 10:32:09;;;;;;;8.98;8.08;;;;;;;31.14;46.71;100682.88;1678594;84;25809;-78
2021/07/07 10:34:38;;;;;;;9.20;8.40;;;;;;;31.19;45.81;100687.70;1663250;84;25861;-78
2021/07/07 10:37:06;;;;;;;10.05;8.00;;;;;;;31.21;46.31;100684.61;1641236;85;26527;-78
2021/07/07 10:39:34;;;;;;;9.33;8.53;;;;;;;31.24;45.64;100687.54;1650442;84;26013;-78
2021/07/07 10:42:07;;;;;;;8.60;7.92;;;;;;;31.35;46.06;100688.05;1681842;83;27468;-78
2021/07/07 10:44:43;;;;;;;9.48;8.60;;;;;;;31.45;46.10;100689.74;1664895;84;26563;-78
2021/07/07 10:47:12;;;;;;;9.05;8.15;;;;;;;31.47;45.17;100685.52;1682100;84;26569;-78
2021/07/07 10:49:54;;;;;;;9.58;8.40;;;;;;;31.52;45.55;100692.86;1654039;84;25815;-78
2021/07/07 10:52:37;;;;;;;8.25;7.53;;;;;;;31.58;45.04;100693.77;1654721;84;25974;-77
2021/07/07 10:55:08;;;;;;;9.60;7.80;;;;;;;31.67;46.09;100694.56;1662574;84;28068;-78
2021/07/07 10:57:35;;;;;;;8.85;8.05;;;;;;;31.71;45.18;100694.75;1654864;84;25848;-79
2021/07/07 11:00:38;;;;;;;8.65;7.85;;;;;;;31.75;44.33;100684.08;1663046;85;26753;-78
2021/07/07 11:03:37;;;;;;;8.40;7.60;;;;;;;31.85;45.04;100691.23;1685809;84;26436;-78
2021/07/07 11:06:27;;;;;;;7.95;7.35;;;;;;;31.93;44.01;100700.11;1646874;85;25785;-78
2021/07/07 11:09:07;;;;;;;10.93;8.63;;;;;;;31.91;43.59;100696.86;1670248;83;27475;-78
2021/07/07 11:11:36;;;;;;;9.58;8.58;;;;;;;31.91;45.08;100692.14;1658466;84;25945;-78
2021/07/07 11:14:16;;;;;;;8.18;7.45;;;;;;;31.98;44.53;100694.45;1660051;85;25853;-78
2021/07/07 11:16:47;;;;;;;9.10;8.30;;;;;;;32.00;45.22;100691.34;1638291;85;26506;-78
2021/07/07 11:19:42;;;;;;;9.23;8.33;;;;;;;32.04;44.78;100690.36;1637428;85;25913;-78
2021/07/07 11:22:12;;;;;;;9.50;8.15;;;;;;;32.11;44.96;100693.47;1621835;85;28113;-78
2021/07/07 11:24:49;;;;;;;8.80;8.00;;;;;;;32.21;45.17;100688.14;1674571;84;25765;-78
2021/07/07 11:27:17;;;;;;;8.85;7.67;;;;;;;32.29;45.58;100686.73;1620901;85;25929;-78
2021/07/07 11:29:45;;;;;;;8.95;8.18;;;;;;;32.35;45.63;100686.83;1643119;84;25898;-78